Bennett, Wisconsin
Current Conditions -  °F | °C
As of 7:55 AM on Friday 31 Oct 2014 (Local Time) from KOLG Reporting Station
Overcast Overcast  
Wind Chill: 20°   Ceiling: 3200
Heat Index: 28°   Visibility: 10mi
Dew Point: 19°   Wind: 9mph
Humidity: 69%   Direction: 360°N
Pressure: 30.48"   Gusts: 16mph
Location:  46.3544°N, 91.6708°W
Report Text: KOLG 311255Z AUTO 36008G14KT 10SM OVC032 M02/M07 A3048 RMK AO1
Loading
Personal Weather Stations






























Interactive Weather Map
Tropical Storm Tracking
New forecast layout! Learn more

10-Day Weather Forecast

Advertisements
Track Severe Weather on mobile